sensor_id;sensor_type;location;lat;lon;timestamp;P1;durP1;ratioP1;P2;durP2;ratioP2
48327;SDS011;34136;51.022;7.082;2023-03-16T00:00:07;10.73;;;3.50;;
48327;SDS011;34136;51.022;7.082;2023-03-16T00:02:53;6.67;;;3.50;;
48327;SDS011;34136;51.022;7.082;2023-03-16T00:05:39;7.80;;;3.20;;
48327;SDS011;34136;51.022;7.082;2023-03-16T00:08:26;10.77;;;3.57;;
48327;SDS011;34136;51.022;7.082;2023-03-16T00:11:12;8.20;;;3.53;;
48327;SDS011;34136;51.022;7.082;2023-03-16T00:13:58;10.07;;;3.43;;
48327;SDS011;34136;51.022;7.082;2023-03-16T00:16:44;9.23;;;3.73;;
48327;SDS011;34136;51.022;7.082;2023-03-16T00:22:50;7.83;;;3.47;;
48327;SDS011;34136;51.022;7.082;2023-03-16T00:25:37;8.67;;;3.13;;
48327;SDS011;34136;51.022;7.082;2023-03-16T00:28:23;6.57;;;3.30;;
48327;SDS011;34136;51.022;7.082;2023-03-16T00:31:10;6.67;;;3.40;;
48327;SDS011;34136;51.022;7.082;2023-03-16T00:33:57;5.23;;;2.87;;
48327;SDS011;34136;51.022;7.082;2023-03-16T00:36:43;8.15;;;3.45;;
48327;SDS011;34136;51.022;7.082;2023-03-16T00:39:29;5.00;;;2.93;;
48327;SDS011;34136;51.022;7.082;2023-03-16T00:42:16;5.97;;;3.53;;
48327;SDS011;34136;51.022;7.082;2023-03-16T00:45:03;7.70;;;2.80;;
48327;SDS011;34136;51.022;7.082;2023-03-16T00:47:49;8.70;;;3.37;;
48327;SDS011;34136;51.022;7.082;2023-03-16T00:50:36;5.13;;;2.80;;
48327;SDS011;34136;51.022;7.082;2023-03-16T00:53:22;7.97;;;3.00;;
48327;SDS011;34136;51.022;7.082;2023-03-16T00:56:09;6.93;;;3.03;;
48327;SDS011;34136;51.022;7.082;2023-03-16T00:58:56;6.30;;;2.87;;
48327;SDS011;34136;51.022;7.082;2023-03-16T01:01:42;6.57;;;2.73;;
48327;SDS011;34136;51.022;7.082;2023-03-16T01:04:28;7.73;;;2.77;;
48327;SDS011;34136;51.022;7.082;2023-03-16T01:07:14;5.13;;;2.97;;
48327;SDS011;34136;51.022;7.082;2023-03-16T01:10:01;5.93;;;2.90;;
48327;SDS011;34136;51.022;7.082;2023-03-16T01:12:48;4.93;;;3.00;;
48327;SDS011;34136;51.022;7.082;2023-03-16T01:15:34;7.83;;;3.00;;
48327;SDS011;34136;51.022;7.082;2023-03-16T01:18:20;8.23;;;2.97;;
48327;SDS011;34136;51.022;7.082;2023-03-16T01:21:07;7.33;;;2.93;;
48327;SDS011;34136;51.022;7.082;2023-03-16T01:23:54;5.87;;;2.70;;
48327;SDS011;34136;51.022;7.082;2023-03-16T01:26:40;4.83;;;2.70;;
48327;SDS011;34136;51.022;7.082;2023-03-16T01:29:26;8.50;;;2.90;;
48327;SDS011;34136;51.022;7.082;2023-03-16T01:32:15;6.47;;;3.17;;
48327;SDS011;34136;51.022;7.082;2023-03-16T01:35:02;5.82;;;3.10;;
48327;SDS011;34136;51.022;7.082;2023-03-16T01:37:48;6.45;;;3.40;;
48327;SDS011;34136;51.022;7.082;2023-03-16T01:40:39;5.83;;;2.83;;
48327;SDS011;34136;51.022;7.082;2023-03-16T01:43:26;6.47;;;3.10;;
48327;SDS011;34136;51.022;7.082;2023-03-16T01:46:16;5.50;;;2.80;;
48327;SDS011;34136;51.022;7.082;2023-03-16T01:49:15;7.00;;;2.87;;
48327;SDS011;34136;51.022;7.082;2023-03-16T01:52:06;4.77;;;2.73;;
48327;SDS011;34136;51.022;7.082;2023-03-16T01:54:59;5.80;;;2.72;;
48327;SDS011;34136;51.022;7.082;2023-03-16T01:57:50;6.17;;;2.60;;
48327;SDS011;34136;51.022;7.082;2023-03-16T02:00:37;7.35;;;2.97;;
48327;SDS011;34136;51.022;7.082;2023-03-16T02:03:29;4.82;;;2.88;;
48327;SDS011;34136;51.022;7.082;2023-03-16T02:06:25;5.30;;;2.97;;
48327;SDS011;34136;51.022;7.082;2023-03-16T02:09:14;8.00;;;2.97;;
48327;SDS011;34136;51.022;7.082;2023-03-16T02:12:03;5.73;;;2.57;;
48327;SDS011;34136;51.022;7.082;2023-03-16T02:14:53;5.73;;;3.00;;
48327;SDS011;34136;51.022;7.082;2023-03-16T02:17:40;6.50;;;2.83;;
48327;SDS011;34136;51.022;7.082;2023-03-16T02:20:33;4.95;;;2.40;;
48327;SDS011;34136;51.022;7.082;2023-03-16T02:23:21;4.65;;;2.58;;
48327;SDS011;34136;51.022;7.082;2023-03-16T02:26:14;4.87;;;2.63;;
48327;SDS011;34136;51.022;7.082;2023-03-16T02:29:22;7.80;;;2.75;;
48327;SDS011;34136;51.022;7.082;2023-03-16T02:32:30;5.40;;;2.40;;
48327;SDS011;34136;51.022;7.082;2023-03-16T02:35:19;5.35;;;2.55;;
48327;SDS011;34136;51.022;7.082;2023-03-16T02:38:06;5.03;;;2.20;;
48327;SDS011;34136;51.022;7.082;2023-03-16T02:41:17;5.17;;;2.63;;
48327;SDS011;34136;51.022;7.082;2023-03-16T02:44:11;6.78;;;2.50;;
48327;SDS011;34136;51.022;7.082;2023-03-16T02:47:12;7.40;;;2.72;;
48327;SDS011;34136;51.022;7.082;2023-03-16T02:50:04;5.40;;;2.55;;
48327;SDS011;34136;51.022;7.082;2023-03-16T02:52:51;7.05;;;2.50;;
48327;SDS011;34136;51.022;7.082;2023-03-16T02:55:37;5.25;;;2.65;;
48327;SDS011;34136;51.022;7.082;2023-03-16T02:58:24;7.20;;;2.47;;
48327;SDS011;34136;51.022;7.082;2023-03-16T03:01:10;5.10;;;2.77;;
48327;SDS011;34136;51.022;7.082;2023-03-16T03:03:57;6.33;;;2.83;;
48327;SDS011;34136;51.022;7.082;2023-03-16T03:06:44;6.47;;;2.60;;
48327;SDS011;34136;51.022;7.082;2023-03-16T03:09:30;7.28;;;3.10;;
48327;SDS011;34136;51.022;7.082;2023-03-16T03:12:17;5.05;;;2.60;;
48327;SDS011;34136;51.022;7.082;2023-03-16T03:15:03;5.95;;;2.63;;
48327;SDS011;34136;51.022;7.082;2023-03-16T03:17:58;4.87;;;2.23;;
48327;SDS011;34136;51.022;7.082;2023-03-16T03:20:47;5.33;;;2.63;;
48327;SDS011;34136;51.022;7.082;2023-03-16T03:23:35;6.87;;;2.63;;
48327;SDS011;34136;51.022;7.082;2023-03-16T03:26:21;5.75;;;2.92;;
48327;SDS011;34136;51.022;7.082;2023-03-16T03:29:07;5.70;;;2.40;;
48327;SDS011;34136;51.022;7.082;2023-03-16T03:31:54;4.43;;;2.50;;
48327;SDS011;34136;51.022;7.082;2023-03-16T03:34:40;6.03;;;2.80;;
48327;SDS011;34136;51.022;7.082;2023-03-16T03:37:27;7.53;;;2.70;;
48327;SDS011;34136;51.022;7.082;2023-03-16T03:40:14;6.10;;;2.60;;
48327;SDS011;34136;51.022;7.082;2023-03-16T03:43:04;3.47;;;2.00;;
48327;SDS011;34136;51.022;7.082;2023-03-16T03:45:57;7.28;;;2.08;;
48327;SDS011;34136;51.022;7.082;2023-03-16T03:48:44;5.13;;;2.42;;
48327;SDS011;34136;51.022;7.082;2023-03-16T03:51:31;5.45;;;2.60;;
48327;SDS011;34136;51.022;7.082;2023-03-16T03:54:24;8.70;;;2.30;;
48327;SDS011;34136;51.022;7.082;2023-03-16T03:57:19;5.97;;;2.17;;
48327;SDS011;34136;51.022;7.082;2023-03-16T04:00:05;4.95;;;2.50;;
48327;SDS011;34136;51.022;7.082;2023-03-16T04:02:58;3.17;;;2.40;;
48327;SDS011;34136;51.022;7.082;2023-03-16T04:05:54;3.72;;;2.30;;
48327;SDS011;34136;51.022;7.082;2023-03-16T04:08:41;5.25;;;2.95;;
48327;SDS011;34136;51.022;7.082;2023-03-16T04:11:30;7.50;;;2.92;;
48327;SDS011;34136;51.022;7.082;2023-03-16T04:14:17;5.05;;;2.90;;
48327;SDS011;34136;51.022;7.082;2023-03-16T04:17:03;5.88;;;2.90;;
48327;SDS011;34136;51.022;7.082;2023-03-16T04:19:51;5.07;;;2.80;;
48327;SDS011;34136;51.022;7.082;2023-03-16T04:22:38;5.50;;;2.80;;
48327;SDS011;34136;51.022;7.082;2023-03-16T04:25:25;7.13;;;3.17;;
48327;SDS011;34136;51.022;7.082;2023-03-16T04:28:12;6.57;;;3.50;;
48327;SDS011;34136;51.022;7.082;2023-03-16T04:31:05;6.15;;;3.10;;
48327;SDS011;34136;51.022;7.082;2023-03-16T05:07:45;7.57;;;4.10;;
48327;SDS011;34136;51.022;7.082;2023-03-16T05:10:33;8.60;;;4.10;;
48327;SDS011;34136;51.022;7.082;2023-03-16T05:13:20;8.03;;;4.30;;
48327;SDS011;34136;51.022;7.082;2023-03-16T05:16:09;7.25;;;4.15;;
48327;SDS011;34136;51.022;7.082;2023-03-16T05:18:59;9.00;;;4.37;;
48327;SDS011;34136;51.022;7.082;2023-03-16T05:21:49;6.77;;;3.97;;
48327;SDS011;34136;51.022;7.082;2023-03-16T05:24:36;7.43;;;4.22;;
48327;SDS011;34136;51.022;7.082;2023-03-16T05:27:23;7.78;;;4.50;;
48327;SDS011;34136;51.022;7.082;2023-03-16T05:30:09;6.15;;;4.30;;
48327;SDS011;34136;51.022;7.082;2023-03-16T05:32:58;13.67;;;4.53;;
48327;SDS011;34136;51.022;7.082;2023-03-16T05:35:46;8.00;;;4.70;;
48327;SDS011;34136;51.022;7.082;2023-03-16T05:38:33;6.70;;;4.28;;
48327;SDS011;34136;51.022;7.082;2023-03-16T05:41:19;6.88;;;4.15;;
48327;SDS011;34136;51.022;7.082;2023-03-16T05:44:38;6.90;;;4.05;;
48327;SDS011;34136;51.022;7.082;2023-03-16T05:47:36;8.25;;;4.22;;
48327;SDS011;34136;51.022;7.082;2023-03-16T05:50:26;8.68;;;5.20;;
48327;SDS011;34136;51.022;7.082;2023-03-16T05:53:12;6.10;;;4.28;;
48327;SDS011;34136;51.022;7.082;2023-03-16T05:56:00;7.15;;;4.00;;
48327;SDS011;34136;51.022;7.082;2023-03-16T05:58:52;7.03;;;4.05;;
48327;SDS011;34136;51.022;7.082;2023-03-16T06:01:47;9.20;;;4.57;;
48327;SDS011;34136;51.022;7.082;2023-03-16T06:04:39;8.32;;;3.65;;
48327;SDS011;34136;51.022;7.082;2023-03-16T06:07:32;8.88;;;3.88;;
48327;SDS011;34136;51.022;7.082;2023-03-16T06:10:19;7.63;;;4.38;;
48327;SDS011;34136;51.022;7.082;2023-03-16T06:18:43;5.45;;;4.05;;
48327;SDS011;34136;51.022;7.082;2023-03-16T06:21:30;6.95;;;4.45;;
48327;SDS011;34136;51.022;7.082;2023-03-16T06:24:23;8.20;;;4.60;;
48327;SDS011;34136;51.022;7.082;2023-03-16T06:27:10;8.02;;;3.88;;
48327;SDS011;34136;51.022;7.082;2023-03-16T06:30:13;6.50;;;3.90;;
48327;SDS011;34136;51.022;7.082;2023-03-16T06:33:00;6.50;;;4.57;;
48327;SDS011;34136;51.022;7.082;2023-03-16T06:35:47;7.25;;;4.30;;
48327;SDS011;34136;51.022;7.082;2023-03-16T06:38:40;9.45;;;4.43;;
48327;SDS011;34136;51.022;7.082;2023-03-16T06:41:46;7.35;;;4.38;;
48327;SDS011;34136;51.022;7.082;2023-03-16T06:44:35;6.50;;;4.18;;
48327;SDS011;34136;51.022;7.082;2023-03-16T06:47:26;9.60;;;4.45;;
48327;SDS011;34136;51.022;7.082;2023-03-16T06:50:15;8.98;;;4.88;;
48327;SDS011;34136;51.022;7.082;2023-03-16T06:53:02;9.18;;;5.00;;
48327;SDS011;34136;51.022;7.082;2023-03-16T06:55:50;8.25;;;5.20;;
48327;SDS011;34136;51.022;7.082;2023-03-16T06:58:37;7.97;;;5.28;;
48327;SDS011;34136;51.022;7.082;2023-03-16T07:01:30;7.65;;;4.82;;
48327;SDS011;34136;51.022;7.082;2023-03-16T07:04:19;6.97;;;4.78;;
48327;SDS011;34136;51.022;7.082;2023-03-16T07:07:06;10.18;;;5.35;;
48327;SDS011;34136;51.022;7.082;2023-03-16T07:09:52;7.70;;;5.40;;
48327;SDS011;34136;51.022;7.082;2023-03-16T07:12:39;6.93;;;4.85;;
48327;SDS011;34136;51.022;7.082;2023-03-16T07:15:25;6.72;;;5.05;;
48327;SDS011;34136;51.022;7.082;2023-03-16T07:21:15;7.25;;;4.80;;
48327;SDS011;34136;51.022;7.082;2023-03-16T07:24:06;8.48;;;5.65;;
48327;SDS011;34136;51.022;7.082;2023-03-16T07:27:04;9.85;;;6.20;;
48327;SDS011;34136;51.022;7.082;2023-03-16T07:29:57;11.02;;;5.90;;
48327;SDS011;34136;51.022;7.082;2023-03-16T07:32:43;8.25;;;5.65;;
48327;SDS011;34136;51.022;7.082;2023-03-16T07:35:30;8.40;;;6.15;;
48327;SDS011;34136;51.022;7.082;2023-03-16T07:38:35;7.85;;;5.75;;
48327;SDS011;34136;51.022;7.082;2023-03-16T07:41:34;9.55;;;6.32;;
48327;SDS011;34136;51.022;7.082;2023-03-16T07:45:07;7.53;;;6.03;;
48327;SDS011;34136;51.022;7.082;2023-03-16T07:59:21;8.52;;;6.45;;
48327;SDS011;34136;51.022;7.082;2023-03-16T08:02:40;8.90;;;7.03;;
48327;SDS011;34136;51.022;7.082;2023-03-16T08:05:36;8.82;;;6.63;;
48327;SDS011;34136;51.022;7.082;2023-03-16T08:08:37;10.25;;;6.70;;
48327;SDS011;34136;51.022;7.082;2023-03-16T08:11:41;10.55;;;6.18;;
48327;SDS011;34136;51.022;7.082;2023-03-16T08:14:33;8.38;;;6.00;;
48327;SDS011;34136;51.022;7.082;2023-03-16T08:17:40;10.40;;;7.22;;
48327;SDS011;34136;51.022;7.082;2023-03-16T08:20:31;8.02;;;7.13;;
48327;SDS011;34136;51.022;7.082;2023-03-16T08:23:50;11.43;;;7.50;;
48327;SDS011;34136;51.022;7.082;2023-03-16T08:26:37;9.35;;;7.10;;
48327;SDS011;34136;51.022;7.082;2023-03-16T08:29:31;9.50;;;6.65;;
48327;SDS011;34136;51.022;7.082;2023-03-16T08:32:17;11.00;;;6.13;;
48327;SDS011;34136;51.022;7.082;2023-03-16T08:35:08;9.43;;;6.40;;
48327;SDS011;34136;51.022;7.082;2023-03-16T08:37:58;9.10;;;6.25;;
48327;SDS011;34136;51.022;7.082;2023-03-16T08:40:45;10.40;;;6.88;;
48327;SDS011;34136;51.022;7.082;2023-03-16T08:43:34;9.18;;;6.97;;
48327;SDS011;34136;51.022;7.082;2023-03-16T08:46:21;9.75;;;7.05;;
48327;SDS011;34136;51.022;7.082;2023-03-16T08:49:13;9.07;;;7.45;;
48327;SDS011;34136;51.022;7.082;2023-03-16T08:52:18;8.38;;;6.78;;
48327;SDS011;34136;51.022;7.082;2023-03-16T08:55:05;10.13;;;7.05;;
48327;SDS011;34136;51.022;7.082;2023-03-16T08:57:52;9.00;;;7.00;;
48327;SDS011;34136;51.022;7.082;2023-03-16T09:00:38;9.90;;;7.38;;
48327;SDS011;34136;51.022;7.082;2023-03-16T09:03:25;10.52;;;7.95;;
48327;SDS011;34136;51.022;7.082;2023-03-16T09:06:13;11.00;;;7.50;;
48327;SDS011;34136;51.022;7.082;2023-03-16T09:09:00;8.77;;;7.35;;
48327;SDS011;34136;51.022;7.082;2023-03-16T09:11:47;12.95;;;8.40;;
48327;SDS011;34136;51.022;7.082;2023-03-16T09:14:33;10.48;;;8.10;;
48327;SDS011;34136;51.022;7.082;2023-03-16T09:17:20;11.23;;;8.45;;
48327;SDS011;34136;51.022;7.082;2023-03-16T09:20:06;12.02;;;7.63;;
48327;SDS011;34136;51.022;7.082;2023-03-16T09:22:54;11.57;;;8.77;;
48327;SDS011;34136;51.022;7.082;2023-03-16T09:25:41;11.27;;;8.18;;
48327;SDS011;34136;51.022;7.082;2023-03-16T09:28:28;10.27;;;8.18;;
48327;SDS011;34136;51.022;7.082;2023-03-16T09:31:15;11.40;;;8.20;;
48327;SDS011;34136;51.022;7.082;2023-03-16T09:34:03;9.77;;;7.85;;
48327;SDS011;34136;51.022;7.082;2023-03-16T09:36:49;9.27;;;7.78;;
48327;SDS011;34136;51.022;7.082;2023-03-16T09:39:35;10.25;;;7.10;;
48327;SDS011;34136;51.022;7.082;2023-03-16T09:42:27;13.00;;;7.55;;
48327;SDS011;34136;51.022;7.082;2023-03-16T09:45:30;9.15;;;6.95;;
48327;SDS011;34136;51.022;7.082;2023-03-16T09:48:22;9.60;;;7.32;;
48327;SDS011;34136;51.022;7.082;2023-03-16T09:57:34;14.18;;;8.15;;
48327;SDS011;34136;51.022;7.082;2023-03-16T10:00:30;8.75;;;6.35;;
48327;SDS011;34136;51.022;7.082;2023-03-16T10:09:59;8.98;;;5.88;;
48327;SDS011;34136;51.022;7.082;2023-03-16T10:13:01;9.32;;;6.50;;
48327;SDS011;34136;51.022;7.082;2023-03-16T10:15:53;9.88;;;5.80;;
48327;SDS011;34136;51.022;7.082;2023-03-16T10:18:42;7.38;;;6.00;;
48327;SDS011;34136;51.022;7.082;2023-03-16T10:21:32;7.53;;;6.10;;
48327;SDS011;34136;51.022;7.082;2023-03-16T10:24:37;8.52;;;5.57;;
48327;SDS011;34136;51.022;7.082;2023-03-16T10:27:29;11.65;;;6.40;;
48327;SDS011;34136;51.022;7.082;2023-03-16T10:30:28;8.25;;;6.13;;
48327;SDS011;34136;51.022;7.082;2023-03-16T10:33:25;8.23;;;6.03;;
48327;SDS011;34136;51.022;7.082;2023-03-16T10:39:17;8.05;;;5.95;;
48327;SDS011;34136;51.022;7.082;2023-03-16T10:42:03;6.75;;;5.72;;
48327;SDS011;34136;51.022;7.082;2023-03-16T10:45:02;9.52;;;5.53;;
48327;SDS011;34136;51.022;7.082;2023-03-16T10:47:49;8.93;;;5.10;;
48327;SDS011;34136;51.022;7.082;2023-03-16T10:50:36;7.97;;;5.50;;
48327;SDS011;34136;51.022;7.082;2023-03-16T10:53:24;7.82;;;5.30;;
48327;SDS011;34136;51.022;7.082;2023-03-16T10:56:22;9.45;;;5.57;;
48327;SDS011;34136;51.022;7.082;2023-03-16T11:02:32;9.98;;;5.10;;
48327;SDS011;34136;51.022;7.082;2023-03-16T11:05:30;8.43;;;4.82;;
48327;SDS011;34136;51.022;7.082;2023-03-16T11:08:19;6.57;;;4.40;;
48327;SDS011;34136;51.022;7.082;2023-03-16T11:11:29;8.00;;;4.88;;
48327;SDS011;34136;51.022;7.082;2023-03-16T11:14:18;8.07;;;4.25;;
48327;SDS011;34136;51.022;7.082;2023-03-16T11:17:09;7.18;;;4.63;;
48327;SDS011;34136;51.022;7.082;2023-03-16T11:20:18;6.18;;;4.07;;
48327;SDS011;34136;51.022;7.082;2023-03-16T11:23:10;6.10;;;4.28;;
48327;SDS011;34136;51.022;7.082;2023-03-16T11:26:02;5.35;;;4.05;;
48327;SDS011;34136;51.022;7.082;2023-03-16T11:29:01;8.50;;;4.55;;
48327;SDS011;34136;51.022;7.082;2023-03-16T11:31:56;9.60;;;4.65;;
48327;SDS011;34136;51.022;7.082;2023-03-16T11:34:49;7.30;;;4.35;;
48327;SDS011;34136;51.022;7.082;2023-03-16T11:43:40;7.88;;;4.03;;
48327;SDS011;34136;51.022;7.082;2023-03-16T11:46:49;5.78;;;3.53;;
48327;SDS011;34136;51.022;7.082;2023-03-16T11:53:23;7.47;;;3.40;;
48327;SDS011;34136;51.022;7.082;2023-03-16T12:12:54;6.22;;;2.10;;
48327;SDS011;34136;51.022;7.082;2023-03-16T12:15:53;5.53;;;2.53;;
48327;SDS011;34136;51.022;7.082;2023-03-16T12:21:52;4.97;;;2.75;;
48327;SDS011;34136;51.022;7.082;2023-03-16T12:25:01;4.25;;;2.40;;
48327;SDS011;34136;51.022;7.082;2023-03-16T12:27:51;3.80;;;2.15;;
48327;SDS011;34136;51.022;7.082;2023-03-16T12:34:12;5.85;;;2.88;;
48327;SDS011;34136;51.022;7.082;2023-03-16T12:40:08;4.90;;;2.08;;
48327;SDS011;34136;51.022;7.082;2023-03-16T12:43:16;5.55;;;2.40;;
48327;SDS011;34136;51.022;7.082;2023-03-16T12:46:37;3.80;;;2.47;;
48327;SDS011;34136;51.022;7.082;2023-03-16T12:49:23;4.63;;;2.28;;
48327;SDS011;34136;51.022;7.082;2023-03-16T12:52:12;5.43;;;2.20;;
48327;SDS011;34136;51.022;7.082;2023-03-16T12:55:11;3.67;;;2.50;;
48327;SDS011;34136;51.022;7.082;2023-03-16T12:58:06;4.55;;;2.97;;
48327;SDS011;34136;51.022;7.082;2023-03-16T13:00:54;5.30;;;2.55;;
48327;SDS011;34136;51.022;7.082;2023-03-16T13:03:57;4.97;;;2.35;;
48327;SDS011;34136;51.022;7.082;2023-03-16T13:10:10;9.70;;;2.30;;
48327;SDS011;34136;51.022;7.082;2023-03-16T13:13:26;7.85;;;2.47;;
48327;SDS011;34136;51.022;7.082;2023-03-16T13:16:21;4.95;;;2.50;;
48327;SDS011;34136;51.022;7.082;2023-03-16T13:22:17;3.33;;;1.70;;
48327;SDS011;34136;51.022;7.082;2023-03-16T13:28:07;5.88;;;2.15;;
48327;SDS011;34136;51.022;7.082;2023-03-16T13:30:59;6.13;;;2.42;;
48327;SDS011;34136;51.022;7.082;2023-03-16T13:33:46;4.95;;;2.33;;
48327;SDS011;34136;51.022;7.082;2023-03-16T13:36:34;6.45;;;2.45;;
48327;SDS011;34136;51.022;7.082;2023-03-16T13:39:21;4.10;;;2.72;;
48327;SDS011;34136;51.022;7.082;2023-03-16T13:42:15;5.28;;;2.10;;
48327;SDS011;34136;51.022;7.082;2023-03-16T13:45:10;4.40;;;1.92;;
48327;SDS011;34136;51.022;7.082;2023-03-16T13:47:59;5.03;;;2.10;;
48327;SDS011;34136;51.022;7.082;2023-03-16T13:50:53;3.80;;;2.35;;
48327;SDS011;34136;51.022;7.082;2023-03-16T13:53:40;3.50;;;1.60;;
48327;SDS011;34136;51.022;7.082;2023-03-16T13:56:27;5.13;;;2.00;;
48327;SDS011;34136;51.022;7.082;2023-03-16T13:59:13;3.00;;;1.75;;
48327;SDS011;34136;51.022;7.082;2023-03-16T14:02:00;7.25;;;1.88;;
48327;SDS011;34136;51.022;7.082;2023-03-16T14:04:53;4.13;;;2.00;;
48327;SDS011;34136;51.022;7.082;2023-03-16T14:07:39;3.75;;;1.83;;
48327;SDS011;34136;51.022;7.082;2023-03-16T14:10:27;4.72;;;1.63;;
48327;SDS011;34136;51.022;7.082;2023-03-16T14:16:14;4.10;;;1.75;;
48327;SDS011;34136;51.022;7.082;2023-03-16T14:19:21;4.55;;;2.03;;
48327;SDS011;34136;51.022;7.082;2023-03-16T14:22:11;4.78;;;1.67;;
48327;SDS011;34136;51.022;7.082;2023-03-16T14:24:58;3.42;;;1.70;;
48327;SDS011;34136;51.022;7.082;2023-03-16T14:27:46;5.70;;;1.83;;
48327;SDS011;34136;51.022;7.082;2023-03-16T14:30:33;7.10;;;2.10;;
48327;SDS011;34136;51.022;7.082;2023-03-16T14:33:27;4.78;;;1.90;;
48327;SDS011;34136;51.022;7.082;2023-03-16T14:36:15;4.90;;;2.00;;
48327;SDS011;34136;51.022;7.082;2023-03-16T14:39:13;4.13;;;1.38;;
48327;SDS011;34136;51.022;7.082;2023-03-16T14:42:02;4.30;;;1.50;;
48327;SDS011;34136;51.022;7.082;2023-03-16T14:44:50;4.95;;;1.70;;
48327;SDS011;34136;51.022;7.082;2023-03-16T14:47:37;2.80;;;1.30;;
48327;SDS011;34136;51.022;7.082;2023-03-16T14:50:27;4.45;;;1.60;;
48327;SDS011;34136;51.022;7.082;2023-03-16T14:53:13;3.53;;;1.60;;
48327;SDS011;34136;51.022;7.082;2023-03-16T14:55:59;4.05;;;1.55;;
48327;SDS011;34136;51.022;7.082;2023-03-16T14:58:46;3.47;;;1.58;;
48327;SDS011;34136;51.022;7.082;2023-03-16T15:01:32;2.45;;;1.25;;
48327;SDS011;34136;51.022;7.082;2023-03-16T15:04:19;5.95;;;1.85;;
48327;SDS011;34136;51.022;7.082;2023-03-16T15:07:24;3.08;;;1.40;;
48327;SDS011;34136;51.022;7.082;2023-03-16T15:12:59;3.75;;;1.90;;
48327;SDS011;34136;51.022;7.082;2023-03-16T15:15:46;3.70;;;1.67;;
48327;SDS011;34136;51.022;7.082;2023-03-16T15:18:44;4.03;;;1.52;;
48327;SDS011;34136;51.022;7.082;2023-03-16T15:21:31;3.70;;;2.10;;
48327;SDS011;34136;51.022;7.082;2023-03-16T15:24:17;3.90;;;1.70;;
48327;SDS011;34136;51.022;7.082;2023-03-16T15:27:04;3.33;;;1.60;;
48327;SDS011;34136;51.022;7.082;2023-03-16T15:30:27;4.50;;;1.70;;
48327;SDS011;34136;51.022;7.082;2023-03-16T15:33:20;3.33;;;1.85;;
48327;SDS011;34136;51.022;7.082;2023-03-16T15:36:16;5.78;;;2.30;;
48327;SDS011;34136;51.022;7.082;2023-03-16T15:39:04;2.63;;;1.55;;
48327;SDS011;34136;51.022;7.082;2023-03-16T15:41:50;5.97;;;2.20;;
48327;SDS011;34136;51.022;7.082;2023-03-16T15:44:36;6.47;;;1.92;;
48327;SDS011;34136;51.022;7.082;2023-03-16T15:47:22;3.03;;;1.73;;
48327;SDS011;34136;51.022;7.082;2023-03-16T15:50:10;3.90;;;2.13;;
48327;SDS011;34136;51.022;7.082;2023-03-16T15:53:04;4.55;;;1.92;;
48327;SDS011;34136;51.022;7.082;2023-03-16T15:55:54;4.45;;;1.77;;
48327;SDS011;34136;51.022;7.082;2023-03-16T15:58:44;4.82;;;1.70;;
48327;SDS011;34136;51.022;7.082;2023-03-16T16:01:36;5.32;;;1.73;;
48327;SDS011;34136;51.022;7.082;2023-03-16T16:04:28;3.70;;;1.90;;
48327;SDS011;34136;51.022;7.082;2023-03-16T20:41:58;6.70;;;3.45;;
48327;SDS011;34136;51.022;7.082;2023-03-16T20:44:45;5.32;;;3.22;;
48327;SDS011;34136;51.022;7.082;2023-03-16T20:47:31;5.97;;;3.08;;
48327;SDS011;34136;51.022;7.082;2023-03-16T20:53:03;5.10;;;2.78;;
48327;SDS011;34136;51.022;7.082;2023-03-16T20:55:50;5.50;;;3.00;;
48327;SDS011;34136;51.022;7.082;2023-03-16T20:58:37;6.47;;;2.92;;
48327;SDS011;34136;51.022;7.082;2023-03-16T21:01:24;7.18;;;3.33;;
48327;SDS011;34136;51.022;7.082;2023-03-16T21:04:24;4.25;;;2.60;;
48327;SDS011;34136;51.022;7.082;2023-03-16T21:07:11;7.18;;;3.47;;
48327;SDS011;34136;51.022;7.082;2023-03-16T21:09:58;5.97;;;3.10;;
48327;SDS011;34136;51.022;7.082;2023-03-16T21:12:46;4.97;;;2.80;;
48327;SDS011;34136;51.022;7.082;2023-03-16T21:15:35;4.50;;;2.88;;
48327;SDS011;34136;51.022;7.082;2023-03-16T21:18:21;3.78;;;2.70;;
48327;SDS011;34136;51.022;7.082;2023-03-16T21:21:12;6.28;;;2.78;;
48327;SDS011;34136;51.022;7.082;2023-03-16T21:24:00;4.47;;;2.20;;
48327;SDS011;34136;51.022;7.082;2023-03-16T21:26:46;5.05;;;2.88;;
48327;SDS011;34136;51.022;7.082;2023-03-16T21:29:34;6.53;;;2.55;;
48327;SDS011;34136;51.022;7.082;2023-03-16T21:32:22;4.65;;;2.10;;
48327;SDS011;34136;51.022;7.082;2023-03-16T21:35:13;5.25;;;2.75;;
48327;SDS011;34136;51.022;7.082;2023-03-16T21:38:08;6.40;;;2.80;;
48327;SDS011;34136;51.022;7.082;2023-03-16T21:41:00;4.50;;;2.78;;
48327;SDS011;34136;51.022;7.082;2023-03-16T21:43:46;6.60;;;3.08;;
48327;SDS011;34136;51.022;7.082;2023-03-16T21:46:33;4.97;;;2.30;;
48327;SDS011;34136;51.022;7.082;2023-03-16T21:49:19;6.05;;;2.58;;
48327;SDS011;34136;51.022;7.082;2023-03-16T21:52:09;6.13;;;2.70;;
48327;SDS011;34136;51.022;7.082;2023-03-16T21:55:08;5.95;;;2.65;;
48327;SDS011;34136;51.022;7.082;2023-03-16T21:58:09;6.97;;;2.72;;
48327;SDS011;34136;51.022;7.082;2023-03-16T22:00:56;5.63;;;2.58;;
48327;SDS011;34136;51.022;7.082;2023-03-16T22:03:42;6.50;;;2.40;;
48327;SDS011;34136;51.022;7.082;2023-03-16T22:06:28;3.90;;;2.22;;
48327;SDS011;34136;51.022;7.082;2023-03-16T22:09:16;7.53;;;2.17;;
48327;SDS011;34136;51.022;7.082;2023-03-16T22:12:05;4.43;;;2.25;;
48327;SDS011;34136;51.022;7.082;2023-03-16T22:14:54;4.07;;;2.58;;
48327;SDS011;34136;51.022;7.082;2023-03-16T22:17:40;5.78;;;2.30;;
48327;SDS011;34136;51.022;7.082;2023-03-16T22:20:26;4.32;;;2.03;;
48327;SDS011;34136;51.022;7.082;2023-03-16T22:23:25;5.90;;;2.13;;
48327;SDS011;34136;51.022;7.082;2023-03-16T22:26:14;4.55;;;2.40;;
48327;SDS011;34136;51.022;7.082;2023-03-16T22:29:04;5.45;;;2.40;;
48327;SDS011;34136;51.022;7.082;2023-03-16T22:32:17;4.60;;;2.30;;
48327;SDS011;34136;51.022;7.082;2023-03-16T22:35:06;4.68;;;2.20;;
48327;SDS011;34136;51.022;7.082;2023-03-16T22:37:56;4.40;;;2.75;;
48327;SDS011;34136;51.022;7.082;2023-03-16T22:40:43;6.15;;;2.80;;
48327;SDS011;34136;51.022;7.082;2023-03-16T22:43:31;5.65;;;2.15;;
48327;SDS011;34136;51.022;7.082;2023-03-16T22:46:21;4.90;;;2.17;;
48327;SDS011;34136;51.022;7.082;2023-03-16T22:49:12;4.78;;;2.17;;
48327;SDS011;34136;51.022;7.082;2023-03-16T22:52:05;6.90;;;2.38;;
48327;SDS011;34136;51.022;7.082;2023-03-16T22:54:51;3.60;;;2.40;;
48327;SDS011;34136;51.022;7.082;2023-03-16T22:57:38;3.92;;;2.30;;
48327;SDS011;34136;51.022;7.082;2023-03-16T23:00:24;5.65;;;2.28;;
48327;SDS011;34136;51.022;7.082;2023-03-16T23:03:15;5.72;;;2.17;;
48327;SDS011;34136;51.022;7.082;2023-03-16T23:06:03;4.45;;;2.30;;
48327;SDS011;34136;51.022;7.082;2023-03-16T23:08:50;5.03;;;2.17;;
48327;SDS011;34136;51.022;7.082;2023-03-16T23:11:36;3.70;;;2.10;;
48327;SDS011;34136;51.022;7.082;2023-03-16T23:14:24;6.32;;;2.47;;
48327;SDS011;34136;51.022;7.082;2023-03-16T23:17:18;5.72;;;2.63;;
48327;SDS011;34136;51.022;7.082;2023-03-16T23:20:17;4.35;;;2.53;;
48327;SDS011;34136;51.022;7.082;2023-03-16T23:23:05;5.68;;;2.47;;
48327;SDS011;34136;51.022;7.082;2023-03-16T23:25:51;4.63;;;2.40;;
48327;SDS011;34136;51.022;7.082;2023-03-16T23:28:37;7.47;;;2.60;;
48327;SDS011;34136;51.022;7.082;2023-03-16T23:31:24;4.53;;;2.28;;
48327;SDS011;34136;51.022;7.082;2023-03-16T23:34:11;3.97;;;2.20;;
48327;SDS011;34136;51.022;7.082;2023-03-16T23:37:02;3.90;;;2.15;;
48327;SDS011;34136;51.022;7.082;2023-03-16T23:39:49;4.10;;;2.40;;
48327;SDS011;34136;51.022;7.082;2023-03-16T23:42:35;3.95;;;2.38;;
48327;SDS011;34136;51.022;7.082;2023-03-16T23:48:24;9.20;;;2.53;;
48327;SDS011;34136;51.022;7.082;2023-03-16T23:51:13;5.65;;;2.40;;
48327;SDS011;34136;51.022;7.082;2023-03-16T23:54:29;4.38;;;2.47;;